ADDS METAR Data INFO
IDs: Format: Raw Decoded Include TAF

Data at: 1609 UTC 19 Oct 2017

METAR for:KHLX (Hillsville/Twin Cnty, VA, US)
Text:KHLX 191555Z AUTO 00000KT 10SM CLR 16/01 A3033 RMK AO2 T01620008
Temperature: 16.2°C ( 61°F)
Dewpoint: 0.8°C ( 33°F) [RH = 35%]
Pressure (altimeter):30.33 inches Hg (1027.2 mb)
Winds:calm
Visibility:10 or more sm (16+ km)
Ceiling:at least 12,000 feet AGL
Clouds:sky clear below 12,000 feet AGL
QC Flag:automated observation with no human augmentation